Plymouth, Ohio
Current Conditions -  °F | °C
As of 8:52 PM on Sunday 21 Dec 2014 (Local Time) from KMFD Reporting Station
Clear Clear  
Wind Chill: 18°   Ceiling: Unl
Heat Index: 25°   Visibility: 7mi
Dew Point: 21°   Wind: 6mph
Humidity: 85%   Direction: 100°E
Pressure: 30.18"   Gusts: NA
Location:  41°N, 82.67°W
Report Text: KMFD 220152Z 10005KT 7SM CLR M04/M06 A3018 RMK AO2 SLP237 T10391061
Loading
Personal Weather Stations






























Interactive Weather Map New forecast layout! Learn more

10-Day Weather Forecast

Advertisements
Track Severe Weather on mobile